sensor_id;sensor_type;location;lat;lon;timestamp;pressure;altitude;pressure_sealevel;temperature;humidity
52319;BME280;38258;51.148;14.068;2023-02-18T00:01:32;98397.81;;;6.23;100.00
52319;BME280;38258;51.148;14.068;2023-02-18T00:03:59;98446.13;;;6.38;100.00
52319;BME280;38258;51.148;14.068;2023-02-18T00:06:29;98415.13;;;6.26;100.00
52319;BME280;38258;51.148;14.068;2023-02-18T00:08:58;98443.53;;;6.40;100.00
52319;BME280;38258;51.148;14.068;2023-02-18T00:11:27;98451.28;;;6.44;100.00
52319;BME280;38258;51.148;14.068;2023-02-18T00:13:55;98442.78;;;6.30;100.00
52319;BME280;38258;51.148;14.068;2023-02-18T00:16:24;98450.56;;;6.31;100.00
52319;BME280;38258;51.148;14.068;2023-02-18T00:18:54;98455.81;;;6.23;100.00
52319;BME280;38258;51.148;14.068;2023-02-18T00:21:20;98462.75;;;6.21;100.00
52319;BME280;38258;51.148;14.068;2023-02-18T00:23:47;98434.38;;;5.98;100.00
52319;BME280;38258;51.148;14.068;2023-02-18T00:26:16;98458.53;;;6.08;100.00
52319;BME280;38258;51.148;14.068;2023-02-18T00:28:44;98451.69;;;5.98;100.00
52319;BME280;38258;51.148;14.068;2023-02-18T00:31:14;98468.97;;;6.05;98.51
52319;BME280;38258;51.148;14.068;2023-02-18T00:33:41;98475.06;;;5.94;100.00
52319;BME280;38258;51.148;14.068;2023-02-18T00:36:12;98456.03;;;5.99;94.80
52319;BME280;38258;51.148;14.068;2023-02-18T00:38:43;98472.44;;;6.05;93.21
52319;BME280;38258;51.148;14.068;2023-02-18T00:41:10;98448.41;;;5.78;95.88
52319;BME280;38258;51.148;14.068;2023-02-18T00:43:38;98477.72;;;5.88;96.45
52319;BME280;38258;51.148;14.068;2023-02-18T00:46:04;98461.31;;;5.85;95.39
52319;BME280;38258;51.148;14.068;2023-02-18T00:48:32;98479.41;;;5.92;94.07
52319;BME280;38258;51.148;14.068;2023-02-18T00:50:59;98481.19;;;5.86;92.29
52319;BME280;38258;51.148;14.068;2023-02-18T00:53:26;98479.47;;;5.86;93.77
52319;BME280;38258;51.148;14.068;2023-02-18T00:55:52;98467.41;;;5.80;91.81
52319;BME280;38258;51.148;14.068;2023-02-18T00:58:19;98473.50;;;5.73;94.89
52319;BME280;38258;51.148;14.068;2023-02-18T01:00:47;98465.84;;;5.56;95.69
52319;BME280;38258;51.148;14.068;2023-02-18T01:03:14;98473.53;;;5.70;94.93
52319;BME280;38258;51.148;14.068;2023-02-18T01:05:41;98474.44;;;5.68;94.35
52319;BME280;38258;51.148;14.068;2023-02-18T01:08:08;98446.81;;;5.57;94.05
52319;BME280;38258;51.148;14.068;2023-02-18T01:10:40;98479.63;;;5.68;95.37
52319;BME280;38258;51.148;14.068;2023-02-18T01:13:07;98473.47;;;5.81;92.56
52319;BME280;38258;51.148;14.068;2023-02-18T01:15:33;98476.22;;;5.61;96.63
52319;BME280;38258;51.148;14.068;2023-02-18T01:18:03;98472.78;;;5.51;98.62
52319;BME280;38258;51.148;14.068;2023-02-18T01:20:32;98468.59;;;5.30;100.00
52319;BME280;38258;51.148;14.068;2023-02-18T01:22:59;98481.53;;;5.37;100.00
52319;BME280;38258;51.148;14.068;2023-02-18T01:25:26;98419.53;;;4.95;100.00
52319;BME280;38258;51.148;14.068;2023-02-18T01:27:52;98421.22;;;5.01;100.00
52319;BME280;38258;51.148;14.068;2023-02-18T01:30:19;98312.75;;;4.28;100.00
52319;BME280;38258;51.148;14.068;2023-02-18T01:32:46;98388.50;;;4.85;100.00
52319;BME280;38258;51.148;14.068;2023-02-18T01:35:16;98404.94;;;4.74;100.00
52319;BME280;38258;51.148;14.068;2023-02-18T01:37:43;98325.69;;;4.34;100.00
52319;BME280;38258;51.148;14.068;2023-02-18T01:40:12;98420.41;;;4.94;100.00
52319;BME280;38258;51.148;14.068;2023-02-18T01:42:39;98399.75;;;4.79;100.00
52319;BME280;38258;51.148;14.068;2023-02-18T01:48:19;98410.03;;;4.93;100.00
52319;BME280;38258;51.148;14.068;2023-02-18T01:50:51;98429.88;;;5.00;100.00
52319;BME280;38258;51.148;14.068;2023-02-18T01:53:21;98457.44;;;5.17;100.00
52319;BME280;38258;51.148;14.068;2023-02-18T01:55:50;98443.63;;;5.15;100.00
52319;BME280;38258;51.148;14.068;2023-02-18T01:58:16;98458.22;;;5.30;100.00
52319;BME280;38258;51.148;14.068;2023-02-18T02:00:44;98459.13;;;5.27;100.00
52319;BME280;38258;51.148;14.068;2023-02-18T02:03:12;98461.75;;;5.22;100.00
52319;BME280;38258;51.148;14.068;2023-02-18T02:05:42;98465.19;;;5.21;100.00
52319;BME280;38258;51.148;14.068;2023-02-18T02:08:15;98460.03;;;5.17;100.00
52319;BME280;38258;51.148;14.068;2023-02-18T02:11:01;98462.59;;;5.20;100.00
52319;BME280;38258;51.148;14.068;2023-02-18T02:13:41;98460.03;;;5.17;100.00
52319;BME280;38258;51.148;14.068;2023-02-18T02:16:19;98472.13;;;5.16;100.00
52319;BME280;38258;51.148;14.068;2023-02-18T02:18:56;98468.75;;;5.02;100.00
52319;BME280;38258;51.148;14.068;2023-02-18T02:21:45;98448.91;;;4.96;100.00
52319;BME280;38258;51.148;14.068;2023-02-18T02:30:54;98471.38;;;4.91;100.00
52319;BME280;38258;51.148;14.068;2023-02-18T02:33:51;98436.88;;;4.81;100.00
52319;BME280;38258;51.148;14.068;2023-02-18T02:36:28;98467.94;;;4.95;100.00
52319;BME280;38258;51.148;14.068;2023-02-18T02:39:01;98460.19;;;4.84;100.00
52319;BME280;38258;51.148;14.068;2023-02-18T02:41:41;98448.97;;;4.77;100.00
52319;BME280;38258;51.148;14.068;2023-02-18T02:44:18;98453.38;;;4.61;100.00
52319;BME280;38258;51.148;14.068;2023-02-18T02:46:47;98449.88;;;4.64;100.00
52319;BME280;38258;51.148;14.068;2023-02-18T02:49:31;98462.81;;;4.73;100.00
52319;BME280;38258;51.148;14.068;2023-02-18T02:52:03;98467.09;;;4.82;100.00
52319;BME280;38258;51.148;14.068;2023-02-18T02:54:31;98473.16;;;4.76;100.00
52319;BME280;38258;51.148;14.068;2023-02-18T02:57:08;98479.22;;;4.71;100.00
52319;BME280;38258;51.148;14.068;2023-02-18T02:59:41;98469.75;;;4.71;100.00
52319;BME280;38258;51.148;14.068;2023-02-18T03:02:21;98470.63;;;4.62;100.00
52319;BME280;38258;51.148;14.068;2023-02-18T03:05:02;98466.31;;;4.64;100.00
52319;BME280;38258;51.148;14.068;2023-02-18T03:07:45;98416.31;;;4.30;100.00
52319;BME280;38258;51.148;14.068;2023-02-18T03:10:26;98446.50;;;4.52;100.00
52319;BME280;38258;51.148;14.068;2023-02-18T03:13:04;98469.75;;;4.62;100.00
52319;BME280;38258;51.148;14.068;2023-02-18T03:15:42;98431.81;;;4.41;100.00
52319;BME280;38258;51.148;14.068;2023-02-18T03:18:17;98443.03;;;4.47;100.00
52319;BME280;38258;51.148;14.068;2023-02-18T03:20:52;98436.16;;;4.35;100.00
52319;BME280;38258;51.148;14.068;2023-02-18T03:23:24;98463.75;;;4.52;100.00
52319;BME280;38258;51.148;14.068;2023-02-18T03:25:53;98475.81;;;4.62;100.00
52319;BME280;38258;51.148;14.068;2023-02-18T03:28:23;98435.28;;;4.41;100.00
52319;BME280;38258;51.148;14.068;2023-02-18T03:30:55;98424.91;;;4.44;100.00
52319;BME280;38258;51.148;14.068;2023-02-18T03:33:31;98466.25;;;4.75;100.00
52319;BME280;38258;51.148;14.068;2023-02-18T03:36:01;98461.94;;;4.79;100.00
52319;BME280;38258;51.148;14.068;2023-02-18T03:38:33;98462.75;;;4.87;100.00
52319;BME280;38258;51.148;14.068;2023-02-18T03:41:01;98471.41;;;4.88;100.00
52319;BME280;38258;51.148;14.068;2023-02-18T03:43:29;98477.44;;;4.90;100.00
52319;BME280;38258;51.148;14.068;2023-02-18T03:45:56;98468.72;;;5.11;100.00
52319;BME280;38258;51.148;14.068;2023-02-18T03:48:23;98480.00;;;5.04;100.00
52319;BME280;38258;51.148;14.068;2023-02-18T03:50:51;98445.50;;;4.88;100.00
52319;BME280;38258;51.148;14.068;2023-02-18T03:53:17;98467.00;;;5.07;100.00
52319;BME280;38258;51.148;14.068;2023-02-18T03:55:45;98475.59;;;5.17;100.00
52319;BME280;38258;51.148;14.068;2023-02-18T03:58:12;98466.94;;;5.16;100.00
52319;BME280;38258;51.148;14.068;2023-02-18T04:00:38;98466.91;;;5.22;100.00
52319;BME280;38258;51.148;14.068;2023-02-18T04:03:05;98439.22;;;5.28;100.00
52319;BME280;38258;51.148;14.068;2023-02-18T04:05:31;98461.63;;;5.41;100.00
52319;BME280;38258;51.148;14.068;2023-02-18T04:07:58;98418.56;;;5.14;100.00
52319;BME280;38258;51.148;14.068;2023-02-18T04:10:25;98449.56;;;5.32;100.00
52319;BME280;38258;51.148;14.068;2023-02-18T04:12:53;98416.84;;;5.17;100.00
52319;BME280;38258;51.148;14.068;2023-02-18T04:15:19;98452.03;;;5.51;100.00
52319;BME280;38258;51.148;14.068;2023-02-18T04:17:46;98466.81;;;5.43;100.00
52319;BME280;38258;51.148;14.068;2023-02-18T04:20:12;98471.91;;;5.55;100.00
52319;BME280;38258;51.148;14.068;2023-02-18T04:22:39;98481.47;;;5.48;100.00
52319;BME280;38258;51.148;14.068;2023-02-18T04:25:06;98483.16;;;5.51;100.00
52319;BME280;38258;51.148;14.068;2023-02-18T04:27:33;98477.13;;;5.50;100.00
52319;BME280;38258;51.148;14.068;2023-02-18T04:30:01;98478.88;;;5.47;100.00
52319;BME280;38258;51.148;14.068;2023-02-18T04:32:27;98483.22;;;5.45;100.00
52319;BME280;38258;51.148;14.068;2023-02-18T04:34:54;98494.47;;;5.44;100.00
52319;BME280;38258;51.148;14.068;2023-02-18T04:37:20;98470.38;;;5.26;100.00
52319;BME280;38258;51.148;14.068;2023-02-18T04:39:47;98479.78;;;5.43;100.00
52319;BME280;38258;51.148;14.068;2023-02-18T04:42:14;98459.16;;;5.24;100.00
52319;BME280;38258;51.148;14.068;2023-02-18T04:44:40;98436.69;;;5.17;100.00
52319;BME280;38258;51.148;14.068;2023-02-18T04:47:08;98441.94;;;5.11;100.00
52319;BME280;38258;51.148;14.068;2023-02-18T04:49:36;98484.13;;;5.39;100.00
52319;BME280;38258;51.148;14.068;2023-02-18T04:52:03;98481.53;;;5.41;100.00
52319;BME280;38258;51.148;14.068;2023-02-18T04:54:30;98466.91;;;5.26;100.00
52319;BME280;38258;51.148;14.068;2023-02-18T04:56:56;98482.41;;;5.35;100.00
52319;BME280;38258;51.148;14.068;2023-02-18T04:59:29;98484.97;;;5.36;100.00
52319;BME280;38258;51.148;14.068;2023-02-18T05:01:56;98471.19;;;5.33;100.00
52319;BME280;38258;51.148;14.068;2023-02-18T05:04:24;98474.63;;;5.35;100.00
52319;BME280;38258;51.148;14.068;2023-02-18T05:06:50;98479.81;;;5.36;100.00
52319;BME280;38258;51.148;14.068;2023-02-18T05:09:17;98468.66;;;5.25;100.00
52319;BME280;38258;51.148;14.068;2023-02-18T05:11:43;98437.56;;;5.17;100.00
52319;BME280;38258;51.148;14.068;2023-02-18T05:14:10;98464.25;;;5.40;100.00
52319;BME280;38258;51.148;14.068;2023-02-18T05:16:36;98446.13;;;5.30;100.00
52319;BME280;38258;51.148;14.068;2023-02-18T05:19:03;98460.78;;;5.41;100.00
52319;BME280;38258;51.148;14.068;2023-02-18T05:21:31;98459.06;;;5.40;100.00
52319;BME280;38258;51.148;14.068;2023-02-18T05:23:58;98377.22;;;4.89;100.00
52319;BME280;38258;51.148;14.068;2023-02-18T05:26:25;98443.50;;;5.33;100.00
52319;BME280;38258;51.148;14.068;2023-02-18T05:28:51;98446.06;;;5.41;100.00
52319;BME280;38258;51.148;14.068;2023-02-18T05:31:18;98452.16;;;5.32;100.00
52319;BME280;38258;51.148;14.068;2023-02-18T05:33:44;98458.16;;;5.45;100.00
52319;BME280;38258;51.148;14.068;2023-02-18T05:36:11;98466.78;;;5.47;100.00
52319;BME280;38258;51.148;14.068;2023-02-18T05:38:38;98461.63;;;5.41;100.00
52319;BME280;38258;51.148;14.068;2023-02-18T05:41:06;98455.59;;;5.34;100.00
52319;BME280;38258;51.148;14.068;2023-02-18T05:43:32;98450.41;;;5.39;100.00
52319;BME280;38258;51.148;14.068;2023-02-18T05:46:19;98459.00;;;5.46;100.00
52319;BME280;38258;51.148;14.068;2023-02-18T05:48:46;98426.31;;;5.20;100.00
52319;BME280;38258;51.148;14.068;2023-02-18T05:51:12;98452.16;;;5.38;100.00
52319;BME280;38258;51.148;14.068;2023-02-18T05:53:40;98410.75;;;5.17;100.00
52319;BME280;38258;51.148;14.068;2023-02-18T05:56:07;98426.31;;;5.17;100.00
52319;BME280;38258;51.148;14.068;2023-02-18T05:58:34;98444.34;;;5.40;100.00
52319;BME280;38258;51.148;14.068;2023-02-18T06:01:00;98437.44;;;5.39;100.00
52319;BME280;38258;51.148;14.068;2023-02-18T06:03:27;98450.38;;;5.42;100.00
52319;BME280;38258;51.148;14.068;2023-02-18T06:05:53;98415.06;;;5.21;100.00
52319;BME280;38258;51.148;14.068;2023-02-18T06:08:20;98445.19;;;5.45;100.00
52319;BME280;38258;51.148;14.068;2023-02-18T06:10:48;98439.19;;;5.38;100.00
52319;BME280;38258;51.148;14.068;2023-02-18T06:13:15;98451.25;;;5.36;100.00
52319;BME280;38258;51.148;14.068;2023-02-18T06:15:41;98451.28;;;5.35;100.00
52319;BME280;38258;51.148;14.068;2023-02-18T06:18:08;98452.22;;;5.26;100.00
52319;BME280;38258;51.148;14.068;2023-02-18T06:20:35;98448.81;;;5.15;100.00
52319;BME280;38258;51.148;14.068;2023-02-18T06:23:01;98410.94;;;4.84;100.00
52319;BME280;38258;51.148;14.068;2023-02-18T06:25:28;98438.56;;;4.96;100.00
52319;BME280;38258;51.148;14.068;2023-02-18T06:27:55;98445.41;;;5.03;100.00
52319;BME280;38258;51.148;14.068;2023-02-18T06:30:22;98423.91;;;4.79;100.00
52319;BME280;38258;51.148;14.068;2023-02-18T06:32:48;98417.03;;;4.72;100.00
52319;BME280;38258;51.148;14.068;2023-02-18T06:35:15;98442.03;;;4.84;100.00
52319;BME280;38258;51.148;14.068;2023-02-18T06:37:42;98417.97;;;4.54;100.00
52319;BME280;38258;51.148;14.068;2023-02-18T06:40:09;98445.56;;;4.72;100.00
52319;BME280;38258;51.148;14.068;2023-02-18T06:42:36;98424.88;;;4.50;100.00
52319;BME280;38258;51.148;14.068;2023-02-18T06:45:04;98467.16;;;4.66;100.00
52319;BME280;38258;51.148;14.068;2023-02-18T06:47:31;98462.84;;;4.70;100.00
52319;BME280;38258;51.148;14.068;2023-02-18T06:49:57;98436.09;;;4.62;100.00
52319;BME280;38258;51.148;14.068;2023-02-18T06:52:24;98453.31;;;4.66;100.00
52319;BME280;38258;51.148;14.068;2023-02-18T06:54:51;98448.19;;;4.55;100.00
52319;BME280;38258;51.148;14.068;2023-02-18T06:57:17;98444.75;;;4.50;100.00
52319;BME280;38258;51.148;14.068;2023-02-18T06:59:44;98439.56;;;4.58;100.00
52319;BME280;38258;51.148;14.068;2023-02-18T07:02:13;98433.47;;;4.65;100.00
52319;BME280;38258;51.148;14.068;2023-02-18T07:04:40;98435.22;;;4.60;100.00
52319;BME280;38258;51.148;14.068;2023-02-18T07:07:06;98433.53;;;4.51;100.00
52319;BME280;38258;51.148;14.068;2023-02-18T07:09:33;98403.34;;;4.36;100.00
52319;BME280;38258;51.148;14.068;2023-02-18T07:11:59;98425.75;;;4.49;100.00
52319;BME280;38258;51.148;14.068;2023-02-18T07:14:26;98425.72;;;4.57;100.00
52319;BME280;38258;51.148;14.068;2023-02-18T07:16:52;98421.41;;;4.58;100.00
52319;BME280;38258;51.148;14.068;2023-02-18T07:19:20;98419.66;;;4.67;100.00
52319;BME280;38258;51.148;14.068;2023-02-18T07:21:53;98406.72;;;4.63;100.00
52319;BME280;38258;51.148;14.068;2023-02-18T07:24:24;98287.00;;;3.85;100.00
52319;BME280;38258;51.148;14.068;2023-02-18T07:26:50;98369.69;;;4.42;100.00
52319;BME280;38258;51.148;14.068;2023-02-18T07:29:17;98267.19;;;3.85;100.00
52319;BME280;38258;51.148;14.068;2023-02-18T07:31:44;98254.25;;;3.90;100.00
52319;BME280;38258;51.148;14.068;2023-02-18T07:34:11;98367.91;;;4.52;100.00
52319;BME280;38258;51.148;14.068;2023-02-18T07:36:39;98324.81;;;4.34;100.00
52319;BME280;38258;51.148;14.068;2023-02-18T07:39:06;98242.97;;;4.00;100.00
52319;BME280;38258;51.148;14.068;2023-02-18T07:41:33;98200.84;;;3.65;100.00
52319;BME280;38258;51.148;14.068;2023-02-18T07:44:00;98366.09;;;4.65;100.00
52319;BME280;38258;51.148;14.068;2023-02-18T07:46:27;98379.00;;;4.82;100.00
52319;BME280;38258;51.148;14.068;2023-02-18T07:48:53;98299.72;;;4.47;100.00
52319;BME280;38258;51.148;14.068;2023-02-18T07:51:22;98293.72;;;4.34;100.00
52319;BME280;38258;51.148;14.068;2023-02-18T07:53:50;98293.69;;;4.43;100.00
52319;BME280;38258;51.148;14.068;2023-02-18T07:56:16;98371.97;;;5.00;100.00
52319;BME280;38258;51.148;14.068;2023-02-18T07:58:43;98372.88;;;4.94;100.00
52319;BME280;38258;51.148;14.068;2023-02-18T08:01:13;98292.78;;;4.53;100.00
52319;BME280;38258;51.148;14.068;2023-02-18T08:03:40;98225.69;;;4.08;100.00
52319;BME280;38258;51.148;14.068;2023-02-18T08:06:07;98228.22;;;4.19;100.00
52319;BME280;38258;51.148;14.068;2023-02-18T08:08:34;98265.28;;;4.29;100.00
52319;BME280;38258;51.148;14.068;2023-02-18T08:11:03;98163.75;;;3.74;100.00
52319;BME280;38258;51.148;14.068;2023-02-18T08:13:31;98272.94;;;4.51;100.00
52319;BME280;38258;51.148;14.068;2023-02-18T08:15:58;98284.94;;;4.64;100.00
52319;BME280;38258;51.148;14.068;2023-02-18T08:18:28;98313.38;;;4.75;100.00
52319;BME280;38258;51.148;14.068;2023-02-18T08:20:57;98153.25;;;3.99;100.00
52319;BME280;38258;51.148;14.068;2023-02-18T08:23:24;98267.69;;;4.62;100.00
52319;BME280;38258;51.148;14.068;2023-02-18T08:25:53;98225.56;;;4.30;100.00
52319;BME280;38258;51.148;14.068;2023-02-18T08:28:25;98148.09;;;4.01;100.00
52319;BME280;38258;51.148;14.068;2023-02-18T08:30:53;98281.47;;;4.70;100.00
52319;BME280;38258;51.148;14.068;2023-02-18T08:33:26;98210.03;;;4.32;100.00
52319;BME280;38258;51.148;14.068;2023-02-18T08:35:53;98286.50;;;4.93;100.00
52319;BME280;38258;51.148;14.068;2023-02-18T08:38:20;98326.06;;;5.16;100.00
52319;BME280;38258;51.148;14.068;2023-02-18T08:40:48;98179.75;;;4.42;100.00
52319;BME280;38258;51.148;14.068;2023-02-18T08:43:15;98253.53;;;5.09;100.00
52319;BME280;38258;51.148;14.068;2023-02-18T08:45:44;98229.44;;;4.98;100.00
52319;BME280;38258;51.148;14.068;2023-02-18T08:48:12;98292.16;;;5.41;100.00
52319;BME280;38258;51.148;14.068;2023-02-18T08:50:40;98092.72;;;4.22;100.00
52319;BME280;38258;51.148;14.068;2023-02-18T08:53:07;98117.66;;;4.34;100.00
52319;BME280;38258;51.148;14.068;2023-02-18T08:55:34;98175.19;;;4.72;100.00
52319;BME280;38258;51.148;14.068;2023-02-18T08:58:04;98129.72;;;4.36;100.00
52319;BME280;38258;51.148;14.068;2023-02-18T09:00:31;98190.72;;;4.78;100.00
52319;BME280;38258;51.148;14.068;2023-02-18T09:03:00;98168.16;;;4.88;100.00
52319;BME280;38258;51.148;14.068;2023-02-18T09:05:27;98107.19;;;4.48;100.00
52319;BME280;38258;51.148;14.068;2023-02-18T09:07:54;98143.06;;;4.96;100.00
52319;BME280;38258;51.148;14.068;2023-02-18T09:10:21;98054.53;;;4.49;100.00
52319;BME280;38258;51.148;14.068;2023-02-18T09:12:48;98139.44;;;5.13;100.00
52319;BME280;38258;51.148;14.068;2023-02-18T09:15:15;98151.22;;;5.40;100.00
52319;BME280;38258;51.148;14.068;2023-02-18T09:17:41;98072.13;;;5.03;100.00
52319;BME280;38258;51.148;14.068;2023-02-18T09:20:10;98163.03;;;5.68;100.00
52319;BME280;38258;51.148;14.068;2023-02-18T09:22:37;98161.13;;;5.79;100.00
52319;BME280;38258;51.148;14.068;2023-02-18T09:25:05;98151.69;;;5.76;100.00
52319;BME280;38258;51.148;14.068;2023-02-18T09:27:32;98082.94;;;5.38;100.00
52319;BME280;38258;51.148;14.068;2023-02-18T09:29:59;98221.03;;;6.34;100.00
52319;BME280;38258;51.148;14.068;2023-02-18T09:32:26;98147.06;;;5.99;100.00
52319;BME280;38258;51.148;14.068;2023-02-18T09:34:53;98129.09;;;5.82;100.00
52319;BME280;38258;51.148;14.068;2023-02-18T09:37:21;98165.16;;;6.06;100.00
52319;BME280;38258;51.148;14.068;2023-02-18T09:39:47;98082.59;;;5.66;100.00
52319;BME280;38258;51.148;14.068;2023-02-18T09:42:16;98173.44;;;6.32;100.00
52319;BME280;38258;51.148;14.068;2023-02-18T09:44:46;98184.44;;;6.49;100.00
52319;BME280;38258;51.148;14.068;2023-02-18T09:47:17;98133.06;;;6.11;100.00
52319;BME280;38258;51.148;14.068;2023-02-18T09:49:47;98085.84;;;5.80;100.00
52319;BME280;38258;51.148;14.068;2023-02-18T09:52:19;98162.97;;;6.38;100.00
52319;BME280;38258;51.148;14.068;2023-02-18T09:54:50;97988.84;;;5.28;100.00
52319;BME280;38258;51.148;14.068;2023-02-18T09:57:22;98073.75;;;5.81;100.00
52319;BME280;38258;51.148;14.068;2023-02-18T09:59:55;98155.38;;;6.26;100.00
52319;BME280;38258;51.148;14.068;2023-02-18T10:02:23;98052.34;;;5.63;100.00
52319;BME280;38258;51.148;14.068;2023-02-18T10:04:51;98155.38;;;6.24;100.00
52319;BME280;38258;51.148;14.068;2023-02-18T10:07:22;98184.63;;;6.37;100.00
52319;BME280;38258;51.148;14.068;2023-02-18T10:09:53;98087.22;;;6.08;100.00
52319;BME280;38258;51.148;14.068;2023-02-18T10:12:23;98034.13;;;5.70;100.00
52319;BME280;38258;51.148;14.068;2023-02-18T10:14:53;97944.53;;;5.44;100.00
52319;BME280;38258;51.148;14.068;2023-02-18T10:17:22;97984.81;;;5.70;100.00
52319;BME280;38258;51.148;14.068;2023-02-18T10:19:51;97986.34;;;5.82;100.00
52319;BME280;38258;51.148;14.068;2023-02-18T10:22:19;98049.59;;;6.34;100.00
52319;BME280;38258;51.148;14.068;2023-02-18T10:24:50;98040.97;;;6.32;100.00
52319;BME280;38258;51.148;14.068;2023-02-18T10:27:23;98019.50;;;6.22;100.00
52319;BME280;38258;51.148;14.068;2023-02-18T10:29:51;98080.34;;;6.60;100.00
52319;BME280;38258;51.148;14.068;2023-02-18T10:32:20;97972.00;;;6.15;100.00
52319;BME280;38258;51.148;14.068;2023-02-18T10:34:52;98016.38;;;6.51;100.00
52319;BME280;38258;51.148;14.068;2023-02-18T10:40:15;98041.69;;;6.89;100.00
52319;BME280;38258;51.148;14.068;2023-02-18T10:42:59;97894.19;;;6.09;100.00
52319;BME280;38258;51.148;14.068;2023-02-18T10:45:35;97952.16;;;6.58;100.00
52319;BME280;38258;51.148;14.068;2023-02-18T10:48:13;97920.13;;;6.58;100.00
52319;BME280;38258;51.148;14.068;2023-02-18T10:50:47;97883.94;;;6.48;100.00
52319;BME280;38258;51.148;14.068;2023-02-18T10:53:17;98071.31;;;7.70;100.00
52319;BME280;38258;51.148;14.068;2023-02-18T10:55:47;97952.97;;;7.04;100.00
52319;BME280;38258;51.148;14.068;2023-02-18T10:58:34;97925.34;;;7.00;100.00
52319;BME280;38258;51.148;14.068;2023-02-18T11:01:03;98006.44;;;7.59;100.00
52319;BME280;38258;51.148;14.068;2023-02-18T11:03:41;97984.31;;;7.41;100.00
52319;BME280;38258;51.148;14.068;2023-02-18T11:06:19;97893.88;;;7.13;100.00
52319;BME280;38258;51.148;14.068;2023-02-18T11:08:48;97910.31;;;7.13;100.00
52319;BME280;38258;51.148;14.068;2023-02-18T11:11:17;97991.34;;;7.75;100.00
52319;BME280;38258;51.148;14.068;2023-02-18T11:13:53;97960.25;;;7.69;100.00
52319;BME280;38258;51.148;14.068;2023-02-18T11:16:21;97808.63;;;6.88;100.00
52319;BME280;38258;51.148;14.068;2023-02-18T11:18:49;97871.13;;;7.21;100.00
52319;BME280;38258;51.148;14.068;2023-02-18T11:21:23;97877.91;;;7.28;100.00
52319;BME280;38258;51.148;14.068;2023-02-18T11:23:53;97783.72;;;6.77;100.00
52319;BME280;38258;51.148;14.068;2023-02-18T11:26:25;97880.88;;;7.49;100.00
52319;BME280;38258;51.148;14.068;2023-02-18T11:28:57;97980.16;;;8.07;100.00
52319;BME280;38258;51.148;14.068;2023-02-18T11:31:39;97865.50;;;7.40;100.00
52319;BME280;38258;51.148;14.068;2023-02-18T11:34:14;97961.34;;;7.96;100.00
52319;BME280;38258;51.148;14.068;2023-02-18T11:36:42;97892.78;;;7.61;100.00
52319;BME280;38258;51.148;14.068;2023-02-18T11:39:18;97974.69;;;8.17;100.00
52319;BME280;38258;51.148;14.068;2023-02-18T11:41:47;97928.34;;;7.97;100.00
52319;BME280;38258;51.148;14.068;2023-02-18T11:44:22;97812.72;;;7.34;100.00
52319;BME280;38258;51.148;14.068;2023-02-18T11:46:58;97958.03;;;8.24;100.00
52319;BME280;38258;51.148;14.068;2023-02-18T11:49:25;97910.94;;;7.97;100.00
52319;BME280;38258;51.148;14.068;2023-02-18T11:51:54;97909.97;;;8.01;100.00
52319;BME280;38258;51.148;14.068;2023-02-18T11:54:30;97829.44;;;7.60;100.00
52319;BME280;38258;51.148;14.068;2023-02-18T11:56:57;97901.31;;;8.01;100.00
52319;BME280;38258;51.148;14.068;2023-02-18T11:59:29;97726.66;;;7.09;100.00
52319;BME280;38258;51.148;14.068;2023-02-18T12:02:00;97871.28;;;8.20;100.00
52319;BME280;38258;51.148;14.068;2023-02-18T12:04:32;97855.94;;;8.10;100.00
52319;BME280;38258;51.148;14.068;2023-02-18T12:07:11;97882.69;;;8.16;100.00
52319;BME280;38258;51.148;14.068;2023-02-18T12:09:43;97833.13;;;7.86;100.00
52319;BME280;38258;51.148;14.068;2023-02-18T12:12:15;97907.88;;;8.49;100.00
52319;BME280;38258;51.148;14.068;2023-02-18T12:14:45;97777.63;;;7.84;100.00
52319;BME280;38258;51.148;14.068;2023-02-18T12:17:24;97865.81;;;8.30;100.00
52319;BME280;38258;51.148;14.068;2023-02-18T12:20:04;97888.84;;;8.45;100.00
52319;BME280;38258;51.148;14.068;2023-02-18T12:22:40;97893.75;;;8.58;100.00
52319;BME280;38258;51.148;14.068;2023-02-18T12:25:23;97742.34;;;7.72;100.00
52319;BME280;38258;51.148;14.068;2023-02-18T12:27:57;97695.22;;;7.50;100.00
52319;BME280;38258;51.148;14.068;2023-02-18T12:30:50;97720.94;;;7.62;100.00
52319;BME280;38258;51.148;14.068;2023-02-18T12:33:27;97736.53;;;7.62;100.00
52319;BME280;38258;51.148;14.068;2023-02-18T12:36:06;97822.69;;;8.19;100.00
52319;BME280;38258;51.148;14.068;2023-02-18T12:39:05;97815.72;;;8.20;100.00
52319;BME280;38258;51.148;14.068;2023-02-18T12:41:44;97769.41;;;7.67;100.00
52319;BME280;38258;51.148;14.068;2023-02-18T12:44:31;97823.06;;;8.05;100.00
52319;BME280;38258;51.148;14.068;2023-02-18T12:47:18;97684.84;;;7.17;100.00
52319;BME280;38258;51.148;14.068;2023-02-18T12:50:19;97752.44;;;7.53;100.00
52319;BME280;38258;51.148;14.068;2023-02-18T12:52:57;97766.75;;;7.68;100.00
52319;BME280;38258;51.148;14.068;2023-02-18T12:55:55;97791.97;;;7.68;100.00
52319;BME280;38258;51.148;14.068;2023-02-18T12:58:34;97781.66;;;7.63;100.00
52319;BME280;38258;51.148;14.068;2023-02-18T13:01:25;97708.31;;;7.14;100.00
52319;BME280;38258;51.148;14.068;2023-02-18T13:04:18;97885.91;;;8.25;100.00
52319;BME280;38258;51.148;14.068;2023-02-18T13:07:14;97772.97;;;7.62;100.00
52319;BME280;38258;51.148;14.068;2023-02-18T13:09:57;97884.28;;;8.22;100.00
52319;BME280;38258;51.148;14.068;2023-02-18T13:12:29;97886.06;;;8.20;100.00
52319;BME280;38258;51.148;14.068;2023-02-18T13:15:02;97755.47;;;7.34;100.00
52319;BME280;38258;51.148;14.068;2023-02-18T13:17:33;97767.84;;;7.26;100.00
52319;BME280;38258;51.148;14.068;2023-02-18T13:20:06;97683.75;;;6.91;100.00